sensor_id;sensor_type;location;lat;lon;timestamp;P1;durP1;ratioP1;P2;durP2;ratioP2
58015;SDS011;43809;52.110;20.964;2023-02-02T00:02:00;11.93;;;6.72;;
58015;SDS011;43809;52.110;20.964;2023-02-02T00:04:00;12.50;;;7.00;;
58015;SDS011;43809;52.110;20.964;2023-02-02T00:06:00;11.80;;;6.85;;
58015;SDS011;43809;52.110;20.964;2023-02-02T00:08:03;11.20;;;6.65;;
58015;SDS011;43809;52.110;20.964;2023-02-02T00:10:03;10.90;;;6.75;;
58015;SDS011;43809;52.110;20.964;2023-02-02T00:12:06;11.82;;;6.35;;
58015;SDS011;43809;52.110;20.964;2023-02-02T00:18:25;10.95;;;5.82;;
58015;SDS011;43809;52.110;20.964;2023-02-02T00:22:50;10.88;;;5.93;;
58015;SDS011;43809;52.110;20.964;2023-02-02T00:24:50;10.13;;;5.28;;
58015;SDS011;43809;52.110;20.964;2023-02-02T00:26:51;11.13;;;5.80;;
58015;SDS011;43809;52.110;20.964;2023-02-02T00:28:52;10.17;;;6.07;;
58015;SDS011;43809;52.110;20.964;2023-02-02T00:30:52;11.00;;;6.45;;
58015;SDS011;43809;52.110;20.964;2023-02-02T00:32:52;11.50;;;5.87;;
58015;SDS011;43809;52.110;20.964;2023-02-02T00:34:52;10.98;;;5.53;;
58015;SDS011;43809;52.110;20.964;2023-02-02T00:36:53;11.60;;;6.43;;
58015;SDS011;43809;52.110;20.964;2023-02-02T00:38:53;10.52;;;5.75;;
58015;SDS011;43809;52.110;20.964;2023-02-02T00:40:53;12.23;;;6.38;;
58015;SDS011;43809;52.110;20.964;2023-02-02T00:42:53;10.40;;;6.13;;
58015;SDS011;43809;52.110;20.964;2023-02-02T00:44:53;11.00;;;6.50;;
58015;SDS011;43809;52.110;20.964;2023-02-02T00:47:12;11.80;;;6.43;;
58015;SDS011;43809;52.110;20.964;2023-02-02T00:49:12;13.38;;;6.25;;
58015;SDS011;43809;52.110;20.964;2023-02-02T00:51:12;12.45;;;6.40;;
58015;SDS011;43809;52.110;20.964;2023-02-02T00:53:12;10.32;;;6.15;;
58015;SDS011;43809;52.110;20.964;2023-02-02T00:58:00;12.63;;;6.57;;
58015;SDS011;43809;52.110;20.964;2023-02-02T01:00:00;12.00;;;6.43;;
58015;SDS011;43809;52.110;20.964;2023-02-02T01:02:00;11.50;;;5.68;;
58015;SDS011;43809;52.110;20.964;2023-02-02T01:04:01;10.98;;;5.88;;
58015;SDS011;43809;52.110;20.964;2023-02-02T01:06:07;10.90;;;5.40;;
58015;SDS011;43809;52.110;20.964;2023-02-02T01:08:07;11.05;;;5.93;;
58015;SDS011;43809;52.110;20.964;2023-02-02T01:10:17;10.80;;;5.43;;
58015;SDS011;43809;52.110;20.964;2023-02-02T01:12:18;9.05;;;4.78;;
58015;SDS011;43809;52.110;20.964;2023-02-02T01:14:18;9.38;;;4.93;;
58015;SDS011;43809;52.110;20.964;2023-02-02T01:16:18;10.38;;;5.13;;
58015;SDS011;43809;52.110;20.964;2023-02-02T01:18:28;8.15;;;4.97;;
58015;SDS011;43809;52.110;20.964;2023-02-02T01:20:28;10.50;;;5.10;;
58015;SDS011;43809;52.110;20.964;2023-02-02T01:22:28;6.35;;;4.78;;
58015;SDS011;43809;52.110;20.964;2023-02-02T01:24:28;9.95;;;4.72;;
58015;SDS011;43809;52.110;20.964;2023-02-02T01:26:29;9.43;;;4.30;;
58015;SDS011;43809;52.110;20.964;2023-02-02T01:28:29;5.45;;;3.42;;
58015;SDS011;43809;52.110;20.964;2023-02-02T01:30:29;7.38;;;4.65;;
58015;SDS011;43809;52.110;20.964;2023-02-02T01:32:30;9.90;;;4.80;;
58015;SDS011;43809;52.110;20.964;2023-02-02T01:34:30;9.57;;;4.80;;
58015;SDS011;43809;52.110;20.964;2023-02-02T01:36:30;10.20;;;5.13;;
58015;SDS011;43809;52.110;20.964;2023-02-02T01:38:30;11.02;;;5.32;;
58015;SDS011;43809;52.110;20.964;2023-02-02T01:40:30;11.02;;;4.97;;
58015;SDS011;43809;52.110;20.964;2023-02-02T01:42:30;5.90;;;4.60;;
58015;SDS011;43809;52.110;20.964;2023-02-02T01:46:49;10.50;;;5.40;;
58015;SDS011;43809;52.110;20.964;2023-02-02T01:51:10;11.02;;;5.07;;
58015;SDS011;43809;52.110;20.964;2023-02-02T01:53:12;9.63;;;5.03;;
58015;SDS011;43809;52.110;20.964;2023-02-02T01:55:13;9.32;;;4.70;;
58015;SDS011;43809;52.110;20.964;2023-02-02T01:57:16;8.23;;;4.65;;
58015;SDS011;43809;52.110;20.964;2023-02-02T01:59:19;9.07;;;4.40;;
58015;SDS011;43809;52.110;20.964;2023-02-02T02:01:20;8.68;;;4.72;;
58015;SDS011;43809;52.110;20.964;2023-02-02T02:03:23;8.60;;;4.60;;
58015;SDS011;43809;52.110;20.964;2023-02-02T02:07:44;7.72;;;4.47;;
58015;SDS011;43809;52.110;20.964;2023-02-02T02:09:46;9.90;;;4.50;;
58015;SDS011;43809;52.110;20.964;2023-02-02T02:11:46;8.00;;;4.30;;
58015;SDS011;43809;52.110;20.964;2023-02-02T02:13:46;7.72;;;4.35;;
58015;SDS011;43809;52.110;20.964;2023-02-02T02:16:08;9.32;;;4.63;;
58015;SDS011;43809;52.110;20.964;2023-02-02T02:25:45;7.82;;;4.13;;
58015;SDS011;43809;52.110;20.964;2023-02-02T02:30:23;5.82;;;3.33;;
58015;SDS011;43809;52.110;20.964;2023-02-02T02:32:29;7.50;;;3.70;;
58015;SDS011;43809;52.110;20.964;2023-02-02T02:34:51;7.80;;;3.92;;
58015;SDS011;43809;52.110;20.964;2023-02-02T02:39:31;6.55;;;3.55;;
58015;SDS011;43809;52.110;20.964;2023-02-02T02:41:33;7.32;;;3.80;;
58015;SDS011;43809;52.110;20.964;2023-02-02T02:43:38;6.78;;;3.85;;
58015;SDS011;43809;52.110;20.964;2023-02-02T02:45:39;8.02;;;4.53;;
58015;SDS011;43809;52.110;20.964;2023-02-02T02:47:40;9.35;;;4.22;;
58015;SDS011;43809;52.110;20.964;2023-02-02T02:49:44;13.45;;;4.53;;
58015;SDS011;43809;52.110;20.964;2023-02-02T02:51:46;7.97;;;4.75;;
58015;SDS011;43809;52.110;20.964;2023-02-02T02:53:46;9.90;;;5.40;;
58015;SDS011;43809;52.110;20.964;2023-02-02T02:58:02;13.70;;;4.95;;
58015;SDS011;43809;52.110;20.964;2023-02-02T03:02:17;7.72;;;4.43;;
58015;SDS011;43809;52.110;20.964;2023-02-02T03:04:27;8.85;;;4.50;;
58015;SDS011;43809;52.110;20.964;2023-02-02T03:08:39;12.20;;;5.03;;
58015;SDS011;43809;52.110;20.964;2023-02-02T03:10:43;11.02;;;5.00;;
58015;SDS011;43809;52.110;20.964;2023-02-02T03:12:45;12.35;;;5.63;;
58015;SDS011;43809;52.110;20.964;2023-02-02T03:14:45;11.68;;;4.95;;
58015;SDS011;43809;52.110;20.964;2023-02-02T03:16:46;11.60;;;5.53;;
58015;SDS011;43809;52.110;20.964;2023-02-02T03:18:46;12.45;;;5.28;;
58015;SDS011;43809;52.110;20.964;2023-02-02T03:20:46;12.40;;;5.55;;
58015;SDS011;43809;52.110;20.964;2023-02-02T03:22:46;11.63;;;6.07;;
58015;SDS011;43809;52.110;20.964;2023-02-02T03:24:46;11.77;;;5.50;;
58015;SDS011;43809;52.110;20.964;2023-02-02T03:26:46;12.57;;;5.60;;
58015;SDS011;43809;52.110;20.964;2023-02-02T03:28:47;11.90;;;5.30;;
58015;SDS011;43809;52.110;20.964;2023-02-02T03:30:48;11.13;;;5.45;;
58015;SDS011;43809;52.110;20.964;2023-02-02T03:32:49;13.38;;;5.47;;
58015;SDS011;43809;52.110;20.964;2023-02-02T03:34:50;13.95;;;5.22;;
58015;SDS011;43809;52.110;20.964;2023-02-02T03:36:50;15.40;;;5.50;;
58015;SDS011;43809;52.110;20.964;2023-02-02T03:38:50;12.73;;;4.63;;
58015;SDS011;43809;52.110;20.964;2023-02-02T03:40:50;12.18;;;4.93;;
58015;SDS011;43809;52.110;20.964;2023-02-02T03:42:51;11.65;;;4.82;;
58015;SDS011;43809;52.110;20.964;2023-02-02T03:44:51;12.13;;;4.72;;
58015;SDS011;43809;52.110;20.964;2023-02-02T03:46:54;11.52;;;4.88;;
58015;SDS011;43809;52.110;20.964;2023-02-02T03:48:55;11.15;;;4.65;;
58015;SDS011;43809;52.110;20.964;2023-02-02T03:50:55;7.78;;;4.05;;
58015;SDS011;43809;52.110;20.964;2023-02-02T03:52:55;10.63;;;4.57;;
58015;SDS011;43809;52.110;20.964;2023-02-02T03:54:55;8.30;;;4.37;;
58015;SDS011;43809;52.110;20.964;2023-02-02T03:56:56;10.32;;;4.45;;
58015;SDS011;43809;52.110;20.964;2023-02-02T03:58:56;10.43;;;4.35;;
58015;SDS011;43809;52.110;20.964;2023-02-02T04:01:06;12.93;;;5.03;;
58015;SDS011;43809;52.110;20.964;2023-02-02T04:03:07;12.43;;;4.15;;
58015;SDS011;43809;52.110;20.964;2023-02-02T04:05:07;10.90;;;5.25;;
58015;SDS011;43809;52.110;20.964;2023-02-02T04:07:07;16.52;;;4.97;;
58015;SDS011;43809;52.110;20.964;2023-02-02T04:09:08;8.23;;;3.85;;
58015;SDS011;43809;52.110;20.964;2023-02-02T04:11:08;10.68;;;4.00;;
58015;SDS011;43809;52.110;20.964;2023-02-02T04:13:09;12.45;;;4.60;;
58015;SDS011;43809;52.110;20.964;2023-02-02T04:15:09;12.48;;;4.50;;
58015;SDS011;43809;52.110;20.964;2023-02-02T04:17:10;10.55;;;4.18;;
58015;SDS011;43809;52.110;20.964;2023-02-02T04:19:10;11.45;;;4.13;;
58015;SDS011;43809;52.110;20.964;2023-02-02T04:21:11;18.35;;;4.57;;
58015;SDS011;43809;52.110;20.964;2023-02-02T04:23:12;10.82;;;3.90;;
58015;SDS011;43809;52.110;20.964;2023-02-02T04:25:12;12.30;;;4.35;;
58015;SDS011;43809;52.110;20.964;2023-02-02T04:27:12;15.70;;;4.07;;
58015;SDS011;43809;52.110;20.964;2023-02-02T04:29:12;12.47;;;3.70;;
58015;SDS011;43809;52.110;20.964;2023-02-02T04:31:12;13.23;;;3.97;;
58015;SDS011;43809;52.110;20.964;2023-02-02T04:33:12;14.07;;;3.92;;
58015;SDS011;43809;52.110;20.964;2023-02-02T04:35:13;10.45;;;3.75;;
58015;SDS011;43809;52.110;20.964;2023-02-02T04:37:13;10.52;;;3.72;;
58015;SDS011;43809;52.110;20.964;2023-02-02T04:39:13;8.30;;;3.67;;
58015;SDS011;43809;52.110;20.964;2023-02-02T04:41:13;5.85;;;3.08;;
58015;SDS011;43809;52.110;20.964;2023-02-02T04:43:13;12.13;;;3.50;;
58015;SDS011;43809;52.110;20.964;2023-02-02T04:45:14;11.73;;;3.78;;
58015;SDS011;43809;52.110;20.964;2023-02-02T04:47:14;13.40;;;3.67;;
58015;SDS011;43809;52.110;20.964;2023-02-02T04:49:14;7.07;;;2.57;;
58015;SDS011;43809;52.110;20.964;2023-02-02T04:51:14;11.70;;;2.92;;
58015;SDS011;43809;52.110;20.964;2023-02-02T04:53:14;13.35;;;3.30;;
58015;SDS011;43809;52.110;20.964;2023-02-02T04:55:15;11.80;;;3.27;;
58015;SDS011;43809;52.110;20.964;2023-02-02T04:57:15;13.10;;;3.67;;
58015;SDS011;43809;52.110;20.964;2023-02-02T04:59:16;11.43;;;3.00;;
58015;SDS011;43809;52.110;20.964;2023-02-02T05:01:17;11.77;;;3.00;;
58015;SDS011;43809;52.110;20.964;2023-02-02T05:03:18;10.50;;;3.47;;
58015;SDS011;43809;52.110;20.964;2023-02-02T05:05:18;7.65;;;2.95;;
58015;SDS011;43809;52.110;20.964;2023-02-02T05:07:19;11.57;;;3.53;;
58015;SDS011;43809;52.110;20.964;2023-02-02T05:09:19;8.13;;;3.05;;
58015;SDS011;43809;52.110;20.964;2023-02-02T05:11:20;13.13;;;3.08;;
58015;SDS011;43809;52.110;20.964;2023-02-02T05:13:21;14.43;;;3.00;;
58015;SDS011;43809;52.110;20.964;2023-02-02T05:15:21;11.02;;;2.90;;
58015;SDS011;43809;52.110;20.964;2023-02-02T05:17:21;10.93;;;3.13;;
58015;SDS011;43809;52.110;20.964;2023-02-02T05:19:21;11.00;;;3.20;;
58015;SDS011;43809;52.110;20.964;2023-02-02T05:21:22;14.00;;;3.20;;
58015;SDS011;43809;52.110;20.964;2023-02-02T05:23:22;11.60;;;3.28;;
58015;SDS011;43809;52.110;20.964;2023-02-02T05:25:22;10.82;;;3.13;;
58015;SDS011;43809;52.110;20.964;2023-02-02T05:27:23;8.83;;;2.60;;
58015;SDS011;43809;52.110;20.964;2023-02-02T05:29:23;13.30;;;3.00;;
58015;SDS011;43809;52.110;20.964;2023-02-02T05:31:23;11.07;;;3.45;;
58015;SDS011;43809;52.110;20.964;2023-02-02T05:33:23;9.63;;;2.65;;
58015;SDS011;43809;52.110;20.964;2023-02-02T05:35:24;10.25;;;2.83;;
58015;SDS011;43809;52.110;20.964;2023-02-02T05:37:24;8.32;;;2.50;;
58015;SDS011;43809;52.110;20.964;2023-02-02T05:39:24;9.63;;;2.93;;
58015;SDS011;43809;52.110;20.964;2023-02-02T05:41:24;11.83;;;3.57;;
58015;SDS011;43809;52.110;20.964;2023-02-02T05:43:25;14.70;;;2.73;;
58015;SDS011;43809;52.110;20.964;2023-02-02T05:45:25;10.77;;;2.83;;
58015;SDS011;43809;52.110;20.964;2023-02-02T05:47:25;6.78;;;2.58;;
58015;SDS011;43809;52.110;20.964;2023-02-02T05:49:25;12.13;;;2.80;;
58015;SDS011;43809;52.110;20.964;2023-02-02T05:51:27;10.05;;;2.80;;
58015;SDS011;43809;52.110;20.964;2023-02-02T05:53:29;10.13;;;2.97;;
58015;SDS011;43809;52.110;20.964;2023-02-02T05:55:29;9.68;;;2.35;;
58015;SDS011;43809;52.110;20.964;2023-02-02T05:57:29;7.10;;;2.70;;
58015;SDS011;43809;52.110;20.964;2023-02-02T05:59:30;7.78;;;2.60;;
58015;SDS011;43809;52.110;20.964;2023-02-02T06:01:30;9.27;;;3.00;;
58015;SDS011;43809;52.110;20.964;2023-02-02T06:03:30;12.80;;;3.13;;
58015;SDS011;43809;52.110;20.964;2023-02-02T06:05:30;10.30;;;2.60;;
58015;SDS011;43809;52.110;20.964;2023-02-02T06:07:30;6.53;;;2.33;;
58015;SDS011;43809;52.110;20.964;2023-02-02T06:09:30;10.70;;;2.93;;
58015;SDS011;43809;52.110;20.964;2023-02-02T06:11:31;8.38;;;2.60;;
58015;SDS011;43809;52.110;20.964;2023-02-02T06:13:31;7.72;;;2.88;;
58015;SDS011;43809;52.110;20.964;2023-02-02T06:15:32;11.45;;;2.75;;
58015;SDS011;43809;52.110;20.964;2023-02-02T06:17:33;6.28;;;2.78;;
58015;SDS011;43809;52.110;20.964;2023-02-02T06:19:33;8.60;;;2.87;;
58015;SDS011;43809;52.110;20.964;2023-02-02T06:21:33;7.57;;;2.50;;
58015;SDS011;43809;52.110;20.964;2023-02-02T06:23:34;11.10;;;2.80;;
58015;SDS011;43809;52.110;20.964;2023-02-02T06:25:34;9.50;;;2.85;;
58015;SDS011;43809;52.110;20.964;2023-02-02T06:27:34;9.25;;;2.92;;
58015;SDS011;43809;52.110;20.964;2023-02-02T06:29:34;7.65;;;3.08;;
58015;SDS011;43809;52.110;20.964;2023-02-02T06:31:34;11.70;;;2.90;;
58015;SDS011;43809;52.110;20.964;2023-02-02T06:33:35;8.00;;;2.97;;
58015;SDS011;43809;52.110;20.964;2023-02-02T06:35:35;12.20;;;3.35;;
58015;SDS011;43809;52.110;20.964;2023-02-02T06:37:35;9.48;;;3.63;;
58015;SDS011;43809;52.110;20.964;2023-02-02T06:39:37;6.75;;;2.85;;
58015;SDS011;43809;52.110;20.964;2023-02-02T06:41:38;8.17;;;2.77;;
58015;SDS011;43809;52.110;20.964;2023-02-02T06:43:39;6.65;;;2.97;;
58015;SDS011;43809;52.110;20.964;2023-02-02T06:45:39;8.37;;;3.00;;
58015;SDS011;43809;52.110;20.964;2023-02-02T06:47:39;10.03;;;3.40;;
58015;SDS011;43809;52.110;20.964;2023-02-02T06:49:39;7.10;;;3.80;;
58015;SDS011;43809;52.110;20.964;2023-02-02T06:51:40;7.75;;;3.20;;
58015;SDS011;43809;52.110;20.964;2023-02-02T06:53:40;8.15;;;3.78;;
58015;SDS011;43809;52.110;20.964;2023-02-02T06:55:40;5.77;;;2.87;;
58015;SDS011;43809;52.110;20.964;2023-02-02T06:57:40;7.88;;;3.08;;
58015;SDS011;43809;52.110;20.964;2023-02-02T06:59:40;9.10;;;3.50;;
58015;SDS011;43809;52.110;20.964;2023-02-02T07:01:41;7.57;;;3.03;;
58015;SDS011;43809;52.110;20.964;2023-02-02T07:03:41;7.53;;;2.90;;
58015;SDS011;43809;52.110;20.964;2023-02-02T07:05:41;8.10;;;3.00;;
58015;SDS011;43809;52.110;20.964;2023-02-02T07:07:41;10.18;;;3.95;;
58015;SDS011;43809;52.110;20.964;2023-02-02T07:09:42;6.87;;;3.23;;
58015;SDS011;43809;52.110;20.964;2023-02-02T07:11:42;9.00;;;3.10;;
58015;SDS011;43809;52.110;20.964;2023-02-02T07:13:46;8.15;;;3.90;;
58015;SDS011;43809;52.110;20.964;2023-02-02T07:15:46;8.35;;;3.50;;
58015;SDS011;43809;52.110;20.964;2023-02-02T07:17:47;9.30;;;4.05;;
58015;SDS011;43809;52.110;20.964;2023-02-02T07:19:47;6.70;;;3.67;;
58015;SDS011;43809;52.110;20.964;2023-02-02T07:21:47;5.73;;;3.30;;
58015;SDS011;43809;52.110;20.964;2023-02-02T07:23:48;8.50;;;3.75;;
58015;SDS011;43809;52.110;20.964;2023-02-02T07:25:48;9.23;;;3.50;;
58015;SDS011;43809;52.110;20.964;2023-02-02T07:27:52;6.43;;;3.50;;
58015;SDS011;43809;52.110;20.964;2023-02-02T07:29:52;7.95;;;3.60;;
58015;SDS011;43809;52.110;20.964;2023-02-02T07:31:53;7.55;;;3.60;;
58015;SDS011;43809;52.110;20.964;2023-02-02T07:33:53;8.52;;;4.00;;
58015;SDS011;43809;52.110;20.964;2023-02-02T07:35:53;7.80;;;3.97;;
58015;SDS011;43809;52.110;20.964;2023-02-02T07:37:54;9.00;;;4.78;;
58015;SDS011;43809;52.110;20.964;2023-02-02T07:39:54;6.80;;;3.92;;
58015;SDS011;43809;52.110;20.964;2023-02-02T07:41:54;6.63;;;3.87;;
58015;SDS011;43809;52.110;20.964;2023-02-02T07:43:54;7.03;;;3.70;;
58015;SDS011;43809;52.110;20.964;2023-02-02T07:45:58;6.57;;;3.50;;
58015;SDS011;43809;52.110;20.964;2023-02-02T07:48:01;9.07;;;3.60;;
58015;SDS011;43809;52.110;20.964;2023-02-02T07:50:01;7.95;;;4.07;;
58015;SDS011;43809;52.110;20.964;2023-02-02T07:52:01;10.18;;;3.90;;
58015;SDS011;43809;52.110;20.964;2023-02-02T07:54:01;10.83;;;3.73;;
58015;SDS011;43809;52.110;20.964;2023-02-02T07:56:05;6.00;;;3.53;;
58015;SDS011;43809;52.110;20.964;2023-02-02T07:58:06;9.63;;;3.63;;
58015;SDS011;43809;52.110;20.964;2023-02-02T08:00:06;6.00;;;3.25;;
58015;SDS011;43809;52.110;20.964;2023-02-02T08:02:08;8.02;;;4.32;;
58015;SDS011;43809;52.110;20.964;2023-02-02T08:04:09;8.38;;;4.15;;
58015;SDS011;43809;52.110;20.964;2023-02-02T08:06:10;6.78;;;3.60;;
58015;SDS011;43809;52.110;20.964;2023-02-02T08:08:11;5.53;;;3.20;;
58015;SDS011;43809;52.110;20.964;2023-02-02T08:10:11;5.57;;;2.90;;
58015;SDS011;43809;52.110;20.964;2023-02-02T08:12:11;5.03;;;2.60;;
58015;SDS011;43809;52.110;20.964;2023-02-02T08:14:12;6.15;;;2.65;;
58015;SDS011;43809;52.110;20.964;2023-02-02T08:16:13;4.32;;;2.72;;
58015;SDS011;43809;52.110;20.964;2023-02-02T08:18:13;4.95;;;2.50;;
58015;SDS011;43809;52.110;20.964;2023-02-02T08:20:13;4.07;;;2.60;;
58015;SDS011;43809;52.110;20.964;2023-02-02T08:22:13;4.63;;;2.55;;
58015;SDS011;43809;52.110;20.964;2023-02-02T08:24:13;5.97;;;2.60;;
58015;SDS011;43809;52.110;20.964;2023-02-02T08:26:15;2.93;;;2.40;;
58015;SDS011;43809;52.110;20.964;2023-02-02T08:28:16;5.75;;;2.50;;
58015;SDS011;43809;52.110;20.964;2023-02-02T08:30:16;4.70;;;2.72;;
58015;SDS011;43809;52.110;20.964;2023-02-02T08:32:16;4.32;;;2.72;;
58015;SDS011;43809;52.110;20.964;2023-02-02T08:34:16;5.40;;;2.87;;
58015;SDS011;43809;52.110;20.964;2023-02-02T08:36:17;2.72;;;2.38;;
58015;SDS011;43809;52.110;20.964;2023-02-02T08:38:18;4.82;;;2.72;;
58015;SDS011;43809;52.110;20.964;2023-02-02T08:40:18;3.23;;;2.37;;
58015;SDS011;43809;52.110;20.964;2023-02-02T08:42:18;6.65;;;3.50;;
58015;SDS011;43809;52.110;20.964;2023-02-02T08:44:18;6.32;;;3.80;;
58015;SDS011;43809;52.110;20.964;2023-02-02T08:46:19;6.65;;;3.40;;
58015;SDS011;43809;52.110;20.964;2023-02-02T08:48:19;5.38;;;3.78;;
58015;SDS011;43809;52.110;20.964;2023-02-02T08:50:20;5.53;;;3.33;;
58015;SDS011;43809;52.110;20.964;2023-02-02T08:52:20;6.70;;;3.40;;
58015;SDS011;43809;52.110;20.964;2023-02-02T08:54:20;4.43;;;3.10;;
58015;SDS011;43809;52.110;20.964;2023-02-02T08:56:21;5.22;;;2.88;;
58015;SDS011;43809;52.110;20.964;2023-02-02T08:58:21;4.32;;;2.80;;
58015;SDS011;43809;52.110;20.964;2023-02-02T09:00:21;5.27;;;3.20;;
58015;SDS011;43809;52.110;20.964;2023-02-02T09:02:22;4.30;;;3.10;;
58015;SDS011;43809;52.110;20.964;2023-02-02T09:04:22;5.47;;;3.63;;
58015;SDS011;43809;52.110;20.964;2023-02-02T09:06:25;4.97;;;3.08;;
58015;SDS011;43809;52.110;20.964;2023-02-02T09:08:26;6.63;;;3.72;;
58015;SDS011;43809;52.110;20.964;2023-02-02T09:10:26;4.65;;;2.90;;
58015;SDS011;43809;52.110;20.964;2023-02-02T09:12:27;5.20;;;3.05;;
58015;SDS011;43809;52.110;20.964;2023-02-02T09:14:27;5.38;;;2.85;;
58015;SDS011;43809;52.110;20.964;2023-02-02T09:16:28;3.65;;;2.33;;
58015;SDS011;43809;52.110;20.964;2023-02-02T09:18:28;3.75;;;2.35;;
58015;SDS011;43809;52.110;20.964;2023-02-02T09:20:28;3.10;;;2.20;;
58015;SDS011;43809;52.110;20.964;2023-02-02T09:22:28;3.90;;;2.63;;
58015;SDS011;43809;52.110;20.964;2023-02-02T09:24:28;3.93;;;2.50;;
58015;SDS011;43809;52.110;20.964;2023-02-02T09:26:28;3.70;;;2.17;;
58015;SDS011;43809;52.110;20.964;2023-02-02T09:28:30;3.67;;;2.33;;
58015;SDS011;43809;52.110;20.964;2023-02-02T09:30:39;3.80;;;2.42;;
58015;SDS011;43809;52.110;20.964;2023-02-02T09:32:40;6.45;;;3.65;;
58015;SDS011;43809;52.110;20.964;2023-02-02T09:34:40;4.22;;;2.80;;
58015;SDS011;43809;52.110;20.964;2023-02-02T09:36:43;5.95;;;3.10;;
58015;SDS011;43809;52.110;20.964;2023-02-02T09:38:43;5.07;;;3.35;;
58015;SDS011;43809;52.110;20.964;2023-02-02T09:40:44;5.50;;;2.77;;
58015;SDS011;43809;52.110;20.964;2023-02-02T09:45:01;5.35;;;3.42;;
58015;SDS011;43809;52.110;20.964;2023-02-02T09:49:16;4.45;;;2.80;;
58015;SDS011;43809;52.110;20.964;2023-02-02T09:51:17;4.45;;;2.80;;
58015;SDS011;43809;52.110;20.964;2023-02-02T09:53:39;6.68;;;3.20;;
58015;SDS011;43809;52.110;20.964;2023-02-02T09:55:41;5.13;;;3.33;;
58015;SDS011;43809;52.110;20.964;2023-02-02T09:57:46;5.45;;;3.15;;
58015;SDS011;43809;52.110;20.964;2023-02-02T09:59:48;6.18;;;3.30;;
58015;SDS011;43809;52.110;20.964;2023-02-02T10:01:51;5.80;;;3.13;;
58015;SDS011;43809;52.110;20.964;2023-02-02T10:06:01;4.45;;;3.22;;
58015;SDS011;43809;52.110;20.964;2023-02-02T10:08:04;4.30;;;3.03;;
58015;SDS011;43809;52.110;20.964;2023-02-02T10:10:16;6.22;;;3.55;;
58015;SDS011;43809;52.110;20.964;2023-02-02T10:16:26;6.32;;;3.90;;
58015;SDS011;43809;52.110;20.964;2023-02-02T10:20:44;6.55;;;4.25;;
58015;SDS011;43809;52.110;20.964;2023-02-02T10:22:46;7.78;;;4.03;;
58015;SDS011;43809;52.110;20.964;2023-02-02T10:24:47;7.15;;;4.40;;
58015;SDS011;43809;52.110;20.964;2023-02-02T10:26:48;8.13;;;4.40;;
58015;SDS011;43809;52.110;20.964;2023-02-02T10:30:52;5.90;;;4.43;;
58015;SDS011;43809;52.110;20.964;2023-02-02T10:32:58;6.85;;;4.60;;
58015;SDS011;43809;52.110;20.964;2023-02-02T10:39:19;8.32;;;5.40;;
58015;SDS011;43809;52.110;20.964;2023-02-02T10:41:29;8.07;;;5.13;;
58015;SDS011;43809;52.110;20.964;2023-02-02T10:45:44;7.63;;;4.65;;
58015;SDS011;43809;52.110;20.964;2023-02-02T10:49:47;7.85;;;4.80;;
58015;SDS011;43809;52.110;20.964;2023-02-02T10:52:35;7.63;;;4.43;;
58015;SDS011;43809;52.110;20.964;2023-02-02T10:54:28;6.63;;;4.50;;
58015;SDS011;43809;52.110;20.964;2023-02-02T10:56:39;6.68;;;4.07;;
58015;SDS011;43809;52.110;20.964;2023-02-02T10:58:57;7.00;;;4.25;;
58015;SDS011;43809;52.110;20.964;2023-02-02T11:01:00;6.00;;;3.78;;
58015;SDS011;43809;52.110;20.964;2023-02-02T11:03:02;5.97;;;3.72;;
58015;SDS011;43809;52.110;20.964;2023-02-02T11:05:10;4.70;;;3.70;;
58015;SDS011;43809;52.110;20.964;2023-02-02T11:07:30;6.25;;;3.78;;
58015;SDS011;43809;52.110;20.964;2023-02-02T11:09:31;7.15;;;3.90;;
58015;SDS011;43809;52.110;20.964;2023-02-02T11:11:33;8.02;;;3.95;;
58015;SDS011;43809;52.110;20.964;2023-02-02T11:13:36;6.05;;;3.97;;
58015;SDS011;43809;52.110;20.964;2023-02-02T11:15:38;6.68;;;4.03;;
58015;SDS011;43809;52.110;20.964;2023-02-02T11:17:38;6.97;;;4.15;;
58015;SDS011;43809;52.110;20.964;2023-02-02T11:19:38;5.93;;;3.75;;
58015;SDS011;43809;52.110;20.964;2023-02-02T11:21:38;5.78;;;3.83;;
58015;SDS011;43809;52.110;20.964;2023-02-02T11:23:39;5.32;;;3.65;;
58015;SDS011;43809;52.110;20.964;2023-02-02T11:25:39;5.57;;;3.90;;
58015;SDS011;43809;52.110;20.964;2023-02-02T11:27:40;9.35;;;4.47;;
58015;SDS011;43809;52.110;20.964;2023-02-02T11:29:42;9.88;;;4.78;;
58015;SDS011;43809;52.110;20.964;2023-02-02T11:33:43;12.10;;;6.40;;
58015;SDS011;43809;52.110;20.964;2023-02-02T11:35:54;7.90;;;4.28;;
58015;SDS011;43809;52.110;20.964;2023-02-02T11:38:13;9.30;;;5.03;;
58015;SDS011;43809;52.110;20.964;2023-02-02T11:42:33;5.85;;;3.83;;
58015;SDS011;43809;52.110;20.964;2023-02-02T11:44:33;8.20;;;4.43;;
58015;SDS011;43809;52.110;20.964;2023-02-02T11:46:36;7.82;;;4.00;;
58015;SDS011;43809;52.110;20.964;2023-02-02T11:50:37;6.25;;;3.50;;
58015;SDS011;43809;52.110;20.964;2023-02-02T11:52:37;6.47;;;4.32;;
58015;SDS011;43809;52.110;20.964;2023-02-02T11:54:39;7.83;;;4.43;;
58015;SDS011;43809;52.110;20.964;2023-02-02T11:56:47;7.18;;;4.28;;
58015;SDS011;43809;52.110;20.964;2023-02-02T11:58:49;8.30;;;4.70;;
58015;SDS011;43809;52.110;20.964;2023-02-02T12:00:54;7.40;;;4.70;;
58015;SDS011;43809;52.110;20.964;2023-02-02T12:02:54;8.25;;;4.60;;
58015;SDS011;43809;52.110;20.964;2023-02-02T12:05:39;10.02;;;5.60;;
58015;SDS011;43809;52.110;20.964;2023-02-02T12:07:22;7.97;;;5.13;;
58015;SDS011;43809;52.110;20.964;2023-02-02T12:09:23;9.05;;;5.10;;
58015;SDS011;43809;52.110;20.964;2023-02-02T12:16:05;11.80;;;6.32;;
58015;SDS011;43809;52.110;20.964;2023-02-02T12:18:33;10.85;;;6.10;;
58015;SDS011;43809;52.110;20.964;2023-02-02T12:20:42;9.73;;;5.70;;
58015;SDS011;43809;52.110;20.964;2023-02-02T12:25:06;11.67;;;6.50;;
58015;SDS011;43809;52.110;20.964;2023-02-02T12:27:24;10.60;;;5.95;;
58015;SDS011;43809;52.110;20.964;2023-02-02T12:42:13;10.27;;;5.75;;
58015;SDS011;43809;52.110;20.964;2023-02-02T12:44:19;12.25;;;5.88;;
58015;SDS011;43809;52.110;20.964;2023-02-02T12:50:39;8.70;;;5.40;;
58015;SDS011;43809;52.110;20.964;2023-02-02T12:52:47;9.63;;;6.03;;
58015;SDS011;43809;52.110;20.964;2023-02-02T12:54:58;9.02;;;5.13;;
58015;SDS011;43809;52.110;20.964;2023-02-02T13:01:38;9.38;;;4.90;;
58015;SDS011;43809;52.110;20.964;2023-02-02T13:08:21;5.65;;;2.97;;
58015;SDS011;43809;52.110;20.964;2023-02-02T13:10:31;8.02;;;4.72;;
58015;SDS011;43809;52.110;20.964;2023-02-02T13:12:35;3.35;;;2.50;;
58015;SDS011;43809;52.110;20.964;2023-02-02T13:14:45;5.78;;;3.85;;
58015;SDS011;43809;52.110;20.964;2023-02-02T13:16:49;4.25;;;2.28;;
58015;SDS011;43809;52.110;20.964;2023-02-02T13:19:00;5.60;;;3.53;;
58015;SDS011;43809;52.110;20.964;2023-02-02T13:21:02;4.40;;;2.78;;
58015;SDS011;43809;52.110;20.964;2023-02-02T13:23:06;3.20;;;1.80;;
58015;SDS011;43809;52.110;20.964;2023-02-02T13:27:27;3.38;;;2.47;;
58015;SDS011;43809;52.110;20.964;2023-02-02T13:29:37;2.83;;;2.05;;
58015;SDS011;43809;52.110;20.964;2023-02-02T13:31:53;4.28;;;2.45;;
58015;SDS011;43809;52.110;20.964;2023-02-02T13:34:06;4.35;;;2.70;;
58015;SDS011;43809;52.110;20.964;2023-02-02T13:36:17;3.75;;;2.33;;
58015;SDS011;43809;52.110;20.964;2023-02-02T13:38:26;3.75;;;2.83;;
58015;SDS011;43809;52.110;20.964;2023-02-02T13:40:31;4.15;;;2.45;;
58015;SDS011;43809;52.110;20.964;2023-02-02T13:48:03;3.50;;;2.40;;
58015;SDS011;43809;52.110;20.964;2023-02-02T14:00:47;4.13;;;2.95;;